createdAt,value
2022-11-05T00:02:49.772Z,0.90
2022-11-05T00:05:42.457Z,1.00
2022-11-05T00:08:35.921Z,1.00
2022-11-05T00:11:17.899Z,1.00
2022-11-05T00:14:12.530Z,1.00
2022-11-05T00:16:49.119Z,1.10
2022-11-05T00:19:24.838Z,1.00
2022-11-05T00:22:18.360Z,1.00
2022-11-05T00:25:11.242Z,1.00
2022-11-05T00:27:51.703Z,0.90
2022-11-05T00:30:29.527Z,1.10
2022-11-05T00:33:10.143Z,0.90
2022-11-05T00:35:46.834Z,0.90
2022-11-05T00:38:23.093Z,0.90
2022-11-05T00:40:59.364Z,0.90
2022-11-05T00:43:52.831Z,0.80
2022-11-05T00:46:29.371Z,1.00
2022-11-05T00:49:24.421Z,0.90
2022-11-05T00:52:19.762Z,1.00
2022-11-05T00:54:56.076Z,0.90
2022-11-05T00:57:32.632Z,1.20
2022-11-05T01:00:13.135Z,1.00
2022-11-05T01:02:50.509Z,0.90
2022-11-05T01:05:27.049Z,0.90
2022-11-05T01:08:03.311Z,1.00
2022-11-05T01:10:41.450Z,1.10
2022-11-05T01:13:19.842Z,1.00
2022-11-05T01:15:57.023Z,1.00
2022-11-05T01:18:33.842Z,0.90
2022-11-05T01:21:18.215Z,0.90
2022-11-05T01:23:54.972Z,1.00
2022-11-05T01:26:30.960Z,0.90
2022-11-05T01:29:06.544Z,1.00
2022-11-05T01:31:43.592Z,0.90
2022-11-05T01:34:20.193Z,0.80
2022-11-05T01:36:56.283Z,1.00
2022-11-05T01:39:32.644Z,1.00
2022-11-05T01:42:11.827Z,0.90
2022-11-05T01:45:21.991Z,0.90
2022-11-05T01:48:07.560Z,0.70
2022-11-05T01:50:55.892Z,0.90
2022-11-05T01:53:36.400Z,1.00
2022-11-05T01:56:21.121Z,0.90
2022-11-05T01:59:02.857Z,0.80
2022-11-05T02:01:38.995Z,0.80
2022-11-05T02:04:28.134Z,0.90
2022-11-05T02:07:05.061Z,0.90
2022-11-05T02:09:51.338Z,0.90
2022-11-05T02:12:29.239Z,0.80
2022-11-05T02:15:06.165Z,0.80
2022-11-05T02:18:00.582Z,0.80
2022-11-05T02:20:59.428Z,0.80
2022-11-05T02:24:07.332Z,0.90
2022-11-05T02:27:15.462Z,0.80
2022-11-05T02:30:26.189Z,0.80
2022-11-05T02:33:31.117Z,1.00
2022-11-05T02:36:30.561Z,0.90
2022-11-05T02:39:38.756Z,0.70
2022-11-05T02:42:30.751Z,0.80
2022-11-05T02:45:21.848Z,0.90
2022-11-05T02:48:16.025Z,0.80
2022-11-05T02:51:01.852Z,0.80
2022-11-05T02:53:47.824Z,1.10
2022-11-05T02:56:33.668Z,0.90
2022-11-05T02:59:09.491Z,0.70
2022-11-05T03:01:48.806Z,0.80
2022-11-05T03:04:27.888Z,0.90
2022-11-05T03:10:35.463Z,0.80
2022-11-05T03:13:21.737Z,0.90
2022-11-05T03:16:04.906Z,0.80
2022-11-05T03:18:53.338Z,0.90
2022-11-05T03:21:40.567Z,0.70
2022-11-05T03:24:23.064Z,0.90
2022-11-05T03:27:07.820Z,0.90
2022-11-05T03:29:49.283Z,0.90
2022-11-05T03:32:28.130Z,0.80
2022-11-05T03:35:11.361Z,0.70
2022-11-05T03:37:56.089Z,0.90
2022-11-05T03:40:35.952Z,0.90
2022-11-05T03:43:16.293Z,0.80
2022-11-05T03:46:02.940Z,0.80
2022-11-05T03:48:47.916Z,0.70
2022-11-05T03:51:38.013Z,0.80
2022-11-05T03:54:16.135Z,0.90
2022-11-05T03:57:04.339Z,0.70
2022-11-05T03:59:49.335Z,1.00
2022-11-05T04:02:29.504Z,0.90
2022-11-05T04:05:06.229Z,0.70
2022-11-05T04:07:59.577Z,0.70
2022-11-05T04:10:52.403Z,0.70
2022-11-05T04:13:28.562Z,0.80
2022-11-05T04:16:29.582Z,0.70
2022-11-05T04:19:06.236Z,0.70
2022-11-05T04:21:59.013Z,0.90
2022-11-05T04:24:35.629Z,0.70
2022-11-05T04:27:12.544Z,0.70
2022-11-05T04:30:05.677Z,0.60
2022-11-05T04:32:42.234Z,0.70
2022-11-05T04:35:19.325Z,0.70
2022-11-05T04:37:55.980Z,0.80
2022-11-05T04:40:33.472Z,0.80
2022-11-05T04:43:14.838Z,0.80
2022-11-05T04:45:51.875Z,0.90
2022-11-05T04:48:28.529Z,0.90
2022-11-05T04:51:04.337Z,0.90
2022-11-05T04:53:43.989Z,0.80
2022-11-05T04:56:26.723Z,0.90
2022-11-05T04:59:03.198Z,0.90
2022-11-05T05:01:39.406Z,0.90
2022-11-05T05:04:16.102Z,0.70
2022-11-05T05:06:53.122Z,0.90
2022-11-05T05:09:30.241Z,0.80
2022-11-05T05:12:07.129Z,0.90
2022-11-05T05:14:43.752Z,0.80
2022-11-05T05:17:20.822Z,0.90
2022-11-05T05:20:13.800Z,0.70
2022-11-05T05:22:56.292Z,0.80
2022-11-05T05:25:32.548Z,0.90
2022-11-05T05:28:09.681Z,0.90
2022-11-05T05:30:46.331Z,0.80
2022-11-05T05:33:23.261Z,0.80
2022-11-05T05:36:04.671Z,0.80
2022-11-05T05:38:44.595Z,0.70
2022-11-05T05:41:21.262Z,0.90
2022-11-05T05:43:56.945Z,1.00
2022-11-05T05:46:32.837Z,1.00
2022-11-05T05:49:12.311Z,1.00
2022-11-05T05:51:51.331Z,0.80
2022-11-05T05:54:32.100Z,0.90
2022-11-05T05:57:12.258Z,0.80
2022-11-05T05:59:48.796Z,1.00
2022-11-05T06:02:26.464Z,0.80
2022-11-05T06:05:02.199Z,1.10
2022-11-05T06:07:38.647Z,1.00
2022-11-05T06:10:17.313Z,0.90
2022-11-05T06:12:53.605Z,0.80
2022-11-05T06:15:35.545Z,0.70
2022-11-05T06:18:13.083Z,0.80
2022-11-05T06:20:50.143Z,0.90
2022-11-05T06:23:26.532Z,1.00
2022-11-05T06:26:06.722Z,0.90
2022-11-05T06:28:43.356Z,0.90
2022-11-05T06:31:19.373Z,0.90
2022-11-05T06:33:55.137Z,1.10
2022-11-05T06:36:31.448Z,1.00
2022-11-05T06:39:08.668Z,0.70
2022-11-05T06:42:11.979Z,0.80
2022-11-05T06:44:42.371Z,0.90
2022-11-05T06:47:18.919Z,1.00
2022-11-05T06:49:55.153Z,0.90
2022-11-05T06:52:31.401Z,1.20
2022-11-05T06:55:08.494Z,0.80
2022-11-05T06:57:46.517Z,0.90
2022-11-05T07:00:26.454Z,0.90
2022-11-05T07:03:08.317Z,0.90
2022-11-05T07:05:49.446Z,0.80
2022-11-05T07:08:26.304Z,0.80
2022-11-05T07:11:03.004Z,0.90
2022-11-05T07:13:39.016Z,0.80
2022-11-05T07:16:16.205Z,1.00
2022-11-05T07:18:52.945Z,0.90
2022-11-05T07:21:29.438Z,0.80
2022-11-05T07:24:06.993Z,0.90
2022-11-05T07:26:43.089Z,1.00
2022-11-05T07:29:19.752Z,1.00
2022-11-05T07:31:56.291Z,0.90
2022-11-05T07:34:32.673Z,0.80
2022-11-05T07:37:09.613Z,0.90
2022-11-05T07:39:46.411Z,0.90
2022-11-05T07:42:23.006Z,0.70
2022-11-05T07:44:59.335Z,0.90
2022-11-05T07:47:35.241Z,1.30
2022-11-05T07:50:14.283Z,0.90
2022-11-05T07:52:50.606Z,1.10
2022-11-05T07:55:27.082Z,1.20
2022-11-05T07:58:04.232Z,1.00
2022-11-05T08:00:41.045Z,1.00
2022-11-05T08:03:20.936Z,1.20
2022-11-05T08:05:57.633Z,1.10
2022-11-05T08:08:34.491Z,1.10
2022-11-05T08:11:15.569Z,1.40
2022-11-05T08:13:52.487Z,1.30
2022-11-05T08:16:29.607Z,1.40
2022-11-05T08:19:06.011Z,1.30
2022-11-05T08:21:42.193Z,1.10
2022-11-05T08:24:19.973Z,1.00
2022-11-05T08:26:56.840Z,1.00
2022-11-05T08:29:33.350Z,1.20
2022-11-05T08:32:09.734Z,1.40
2022-11-05T08:34:46.869Z,1.40
2022-11-05T08:37:24.618Z,1.60
2022-11-05T08:40:01.193Z,1.50
2022-11-05T08:42:37.467Z,1.50
2022-11-05T08:45:17.356Z,1.30
2022-11-05T08:47:53.407Z,1.30
2022-11-05T08:50:30.481Z,1.80
2022-11-05T08:53:07.078Z,1.40
2022-11-05T08:55:42.649Z,1.40
2022-11-05T08:58:21.046Z,1.20
2022-11-05T09:01:03.459Z,1.40
2022-11-05T09:03:41.340Z,1.70
2022-11-05T09:06:17.909Z,1.70
2022-11-05T09:08:54.475Z,1.90
2022-11-05T09:11:49.923Z,2.20
2022-11-05T09:14:27.913Z,2.30
2022-11-05T09:17:03.944Z,2.60
2022-11-05T09:19:40.680Z,2.20
2022-11-05T09:22:16.593Z,1.90
2022-11-05T09:24:52.976Z,3.00
2022-11-05T09:27:29.327Z,1.80
2022-11-05T09:30:04.993Z,2.00
2022-11-05T09:32:40.961Z,1.40
2022-11-05T09:35:18.234Z,1.60
2022-11-05T09:37:59.725Z,1.50
2022-11-05T09:40:44.695Z,1.30
2022-11-05T09:43:31.387Z,1.50
2022-11-05T09:46:16.019Z,1.30
2022-11-05T09:48:58.014Z,1.30
2022-11-05T09:51:36.565Z,1.30
2022-11-05T09:54:16.736Z,1.40
2022-11-05T09:56:54.228Z,1.50
2022-11-05T09:59:38.427Z,1.40
2022-11-05T10:02:22.971Z,1.20
2022-11-05T10:05:09.405Z,1.50
2022-11-05T10:07:51.549Z,1.30
2022-11-05T10:10:45.743Z,1.10
2022-11-05T10:13:31.897Z,1.40
2022-11-05T10:16:17.988Z,1.20
2022-11-05T10:19:00.700Z,1.10
2022-11-05T10:22:04.952Z,1.10
2022-11-05T10:24:35.574Z,1.40
2022-11-05T10:27:16.498Z,1.50
2022-11-05T10:29:53.641Z,1.50
2022-11-05T10:32:38.216Z,1.40
2022-11-05T10:35:19.952Z,1.20
2022-11-05T10:37:59.274Z,1.20
2022-11-05T10:40:52.506Z,1.80
2022-11-05T10:43:39.488Z,1.50
2022-11-05T10:46:30.774Z,1.30
2022-11-05T10:49:36.933Z,1.30
2022-11-05T10:52:28.337Z,1.10
2022-11-05T10:55:13.021Z,1.20
2022-11-05T10:57:50.582Z,1.40
2022-11-05T11:00:34.266Z,1.40
2022-11-05T11:03:38.152Z,1.50
2022-11-05T11:06:27.609Z,1.10
2022-11-05T11:09:08.190Z,1.20
2022-11-05T11:11:48.200Z,1.50
2022-11-05T11:14:28.527Z,1.70
2022-11-05T11:17:29.829Z,1.50
2022-11-05T11:23:16.647Z,1.50
2022-11-05T11:26:02.437Z,1.40
2022-11-05T11:28:45.774Z,1.40
2022-11-05T11:31:26.154Z,1.40
2022-11-05T11:34:07.743Z,1.40
2022-11-05T11:36:58.429Z,1.40
2022-11-05T11:39:36.899Z,1.60
2022-11-05T11:42:22.351Z,1.50
2022-11-05T11:45:00.486Z,1.50
2022-11-05T11:47:37.187Z,1.40
2022-11-05T11:50:48.499Z,1.60
2022-11-05T11:53:38.297Z,1.40
2022-11-05T11:56:25.668Z,1.60
2022-11-05T11:59:12.574Z,1.30
2022-11-05T12:02:36.531Z,1.60
2022-11-05T12:05:40.040Z,1.30
2022-11-05T12:08:45.502Z,1.30
2022-11-05T12:11:32.735Z,1.20
2022-11-05T12:14:28.724Z,1.30
2022-11-05T12:17:28.023Z,1.30
2022-11-05T12:20:32.246Z,1.30
2022-11-05T12:26:36.385Z,1.60
2022-11-05T12:29:37.130Z,1.50
2022-11-05T12:33:08.180Z,1.50
2022-11-05T12:39:44.445Z,1.70
2022-11-05T12:42:43.569Z,1.40
2022-11-05T12:45:39.179Z,1.40
2022-11-05T12:48:44.873Z,1.50
2022-11-05T12:51:37.985Z,1.20
2022-11-05T12:54:29.878Z,1.40
2022-11-05T12:57:13.968Z,1.50
2022-11-05T13:00:00.823Z,1.80
2022-11-05T13:02:49.006Z,1.70
2022-11-05T13:05:37.377Z,1.70
2022-11-05T13:08:22.923Z,1.90
2022-11-05T13:11:05.673Z,1.80
2022-11-05T13:13:48.920Z,1.60
2022-11-05T13:16:32.485Z,2.00
2022-11-05T13:19:20.118Z,1.80
2022-11-05T13:22:08.080Z,1.90
2022-11-05T13:24:52.738Z,2.00
2022-11-05T13:27:51.743Z,1.90
2022-11-05T13:30:38.393Z,1.90
2022-11-05T13:33:22.002Z,1.70
2022-11-05T13:36:26.922Z,1.80
2022-11-05T13:39:14.592Z,1.80
2022-11-05T13:42:33.234Z,1.60
2022-11-05T13:49:12.725Z,1.60
2022-11-05T13:52:06.846Z,1.90
2022-11-05T13:55:28.594Z,2.20
2022-11-05T13:58:39.386Z,2.30
2022-11-05T14:01:38.599Z,1.60
2022-11-05T14:04:45.949Z,1.60
2022-11-05T14:07:28.000Z,1.70
2022-11-05T14:10:24.087Z,2.10
2022-11-05T14:13:07.645Z,2.10
2022-11-05T14:15:55.542Z,2.30
2022-11-05T14:18:47.171Z,2.50
2022-11-05T14:21:52.140Z,2.70
2022-11-05T14:24:47.436Z,2.40
2022-11-05T14:27:55.590Z,2.40
2022-11-05T14:30:49.997Z,3.10
2022-11-05T14:33:42.665Z,3.20
2022-11-05T14:36:47.350Z,3.40
2022-11-05T14:39:31.788Z,3.40
2022-11-05T14:42:18.762Z,3.30
2022-11-05T14:45:31.527Z,4.00
2022-11-05T14:48:25.846Z,3.80
2022-11-05T14:51:02.227Z,4.00
2022-11-05T14:53:43.210Z,3.50
2022-11-05T14:56:23.710Z,4.00
2022-11-05T14:59:51.341Z,4.10
2022-11-05T15:02:35.726Z,4.30
2022-11-05T15:05:51.926Z,5.20
2022-11-05T15:09:06.496Z,6.40
2022-11-05T15:11:50.963Z,6.20
2022-11-05T15:14:35.316Z,5.20
2022-11-05T15:17:30.250Z,6.50
2022-11-05T15:20:20.002Z,5.60
2022-11-05T15:23:02.995Z,5.40
2022-11-05T15:25:53.432Z,5.10
2022-11-05T15:28:39.836Z,5.10
2022-11-05T15:31:36.311Z,5.70
2022-11-05T15:34:28.822Z,8.60
2022-11-05T15:37:21.642Z,9.40
2022-11-05T15:39:58.496Z,8.50
2022-11-05T15:42:35.848Z,6.00
2022-11-05T15:45:26.505Z,5.60
2022-11-05T15:48:03.241Z,5.20
2022-11-05T15:50:39.569Z,4.10
2022-11-05T15:54:28.600Z,4.00
2022-11-05T15:57:00.889Z,3.00
2022-11-05T15:59:37.957Z,2.90
2022-11-05T16:02:53.154Z,3.00
2022-11-05T16:05:31.852Z,3.40
2022-11-05T16:08:09.652Z,3.00
2022-11-05T16:10:51.023Z,2.90
2022-11-05T16:13:38.479Z,2.80
2022-11-05T16:16:39.202Z,4.50
2022-11-05T16:19:47.794Z,3.60
2022-11-05T16:22:25.560Z,3.80
2022-11-05T16:25:03.690Z,4.30
2022-11-05T16:27:40.312Z,3.30
2022-11-05T16:30:33.848Z,3.50
2022-11-05T16:33:18.870Z,3.70
2022-11-05T16:35:55.935Z,3.80
2022-11-05T16:38:32.937Z,3.70
2022-11-05T16:41:15.350Z,3.70
2022-11-05T16:43:59.787Z,4.50
2022-11-05T16:46:38.196Z,4.70
2022-11-05T16:49:15.627Z,4.30
2022-11-05T16:51:51.549Z,4.00
2022-11-05T16:54:28.036Z,3.60
2022-11-05T16:57:05.144Z,4.00
2022-11-05T16:59:40.613Z,3.70
2022-11-05T17:02:19.274Z,3.80
2022-11-05T17:04:55.519Z,4.30
2022-11-05T17:07:37.092Z,4.30
2022-11-05T17:10:16.603Z,3.30
2022-11-05T17:12:53.201Z,4.50
2022-11-05T17:15:35.755Z,5.10
2022-11-05T17:18:18.195Z,3.90
2022-11-05T17:20:58.556Z,4.00
2022-11-05T17:23:36.862Z,4.80
2022-11-05T17:26:16.136Z,4.30
2022-11-05T17:28:52.971Z,4.30
2022-11-05T17:31:29.400Z,4.50
2022-11-05T17:34:06.438Z,4.40
2022-11-05T17:36:43.233Z,5.80
2022-11-05T17:39:20.628Z,4.40
2022-11-05T17:41:56.426Z,4.20
2022-11-05T17:44:32.482Z,4.10
2022-11-05T17:47:09.086Z,4.70
2022-11-05T17:49:45.908Z,4.80
2022-11-05T17:52:22.513Z,5.10
2022-11-05T17:54:59.792Z,4.80
2022-11-05T17:57:36.073Z,4.40
2022-11-05T18:00:18.823Z,5.50
2022-11-05T18:02:55.183Z,4.70
2022-11-05T18:05:31.890Z,4.80
2022-11-05T18:08:08.457Z,4.90
2022-11-05T18:10:46.131Z,4.70
2022-11-05T18:13:22.794Z,5.10
2022-11-05T18:16:00.277Z,4.50
2022-11-05T18:18:36.598Z,5.00
2022-11-05T18:21:13.686Z,4.70
2022-11-05T18:23:49.700Z,5.10
2022-11-05T18:26:25.828Z,5.00
2022-11-05T18:29:03.886Z,5.20
2022-11-05T18:31:38.978Z,4.80
2022-11-05T18:34:15.575Z,4.50
2022-11-05T18:36:56.153Z,4.70
2022-11-05T18:39:33.038Z,6.50
2022-11-05T18:42:09.891Z,6.80
2022-11-05T18:44:46.193Z,5.60
2022-11-05T18:47:23.049Z,5.10
2022-11-05T18:49:58.844Z,5.10
2022-11-05T18:52:36.229Z,5.80
2022-11-05T18:55:16.028Z,5.20
2022-11-05T18:57:52.645Z,5.20
2022-11-05T19:00:29.721Z,5.50
2022-11-05T19:03:05.962Z,5.20
2022-11-05T19:05:42.426Z,4.80
2022-11-05T19:08:18.585Z,4.90
2022-11-05T19:10:56.698Z,4.60
2022-11-05T19:13:32.651Z,4.90
2022-11-05T19:16:10.359Z,4.80
2022-11-05T19:18:47.510Z,4.60
2022-11-05T19:21:26.286Z,4.70
2022-11-05T19:24:05.327Z,3.60
2022-11-05T19:26:42.163Z,3.60
2022-11-05T19:29:18.810Z,3.30
2022-11-05T19:31:55.815Z,3.30
2022-11-05T19:34:32.393Z,3.20
2022-11-05T19:37:08.587Z,3.20
2022-11-05T19:39:45.953Z,3.00
2022-11-05T19:42:22.712Z,3.40
2022-11-05T19:45:16.604Z,2.40
2022-11-05T19:47:55.470Z,2.60
2022-11-05T19:50:31.337Z,2.40
2022-11-05T19:53:08.121Z,2.80
2022-11-05T19:55:47.738Z,3.90
2022-11-05T19:58:24.075Z,4.30
2022-11-05T20:01:03.027Z,3.80
2022-11-05T20:03:39.270Z,3.00
2022-11-05T20:06:20.495Z,2.70
2022-11-05T20:09:20.516Z,3.30
2022-11-05T20:11:56.923Z,2.50
2022-11-05T20:14:33.502Z,2.50
2022-11-05T20:17:09.550Z,2.20
2022-11-05T20:19:46.293Z,2.30
2022-11-05T20:22:22.748Z,2.20
2022-11-05T20:24:58.611Z,2.10
2022-11-05T20:27:35.167Z,2.00
2022-11-05T20:30:17.461Z,1.90
2022-11-05T20:32:58.683Z,2.50
2022-11-05T20:35:36.285Z,2.20
2022-11-05T20:38:13.488Z,2.40
2022-11-05T20:40:50.448Z,2.10
2022-11-05T20:43:30.280Z,2.10
2022-11-05T20:46:07.636Z,2.40
2022-11-05T20:48:44.525Z,2.00
2022-11-05T20:51:24.452Z,2.20
2022-11-05T20:54:04.140Z,1.90
2022-11-05T20:56:42.750Z,2.00
2022-11-05T20:59:19.816Z,1.60
2022-11-05T21:01:56.823Z,1.70
2022-11-05T21:04:33.322Z,1.90
2022-11-05T21:07:09.896Z,2.70
2022-11-05T21:09:46.812Z,3.00
2022-11-05T21:12:27.171Z,2.50
2022-11-05T21:15:04.008Z,2.10
2022-11-05T21:17:41.258Z,1.80
2022-11-05T21:20:18.580Z,1.70
2022-11-05T21:22:54.778Z,1.70
2022-11-05T21:25:32.055Z,2.10
2022-11-05T21:28:11.701Z,1.90
2022-11-05T21:30:49.545Z,1.60
2022-11-05T21:33:27.240Z,1.70
2022-11-05T21:36:09.371Z,1.80
2022-11-05T21:38:45.845Z,1.70
2022-11-05T21:41:23.929Z,1.30
2022-11-05T21:44:01.239Z,1.70
2022-11-05T21:46:40.057Z,1.80
2022-11-05T21:49:16.561Z,1.60
2022-11-05T21:52:09.079Z,1.60
2022-11-05T21:55:02.399Z,1.80
2022-11-05T21:57:55.293Z,1.60
2022-11-05T22:00:32.447Z,1.60
2022-11-05T22:03:09.117Z,1.80
2022-11-05T22:05:46.547Z,1.60
2022-11-05T22:08:25.898Z,1.60
2022-11-05T22:11:05.604Z,1.80
2022-11-05T22:13:42.590Z,2.00
2022-11-05T22:16:19.406Z,1.90
2022-11-05T22:18:58.423Z,1.50
2022-11-05T22:21:35.073Z,1.80
2022-11-05T22:24:13.469Z,1.70
2022-11-05T22:26:49.897Z,1.60
2022-11-05T22:29:26.510Z,2.10
2022-11-05T22:32:03.032Z,1.80
2022-11-05T22:34:39.439Z,1.60
2022-11-05T22:37:17.039Z,1.70
2022-11-05T22:39:53.760Z,1.70
2022-11-05T22:42:29.561Z,1.50
2022-11-05T22:45:05.221Z,1.90
2022-11-05T22:47:42.891Z,1.50
2022-11-05T22:50:19.254Z,1.00
2022-11-05T22:52:55.228Z,1.50
2022-11-05T22:55:31.183Z,1.50
2022-11-05T22:58:08.080Z,1.60
2022-11-05T23:00:45.260Z,1.40
2022-11-05T23:03:21.940Z,1.30
2022-11-05T23:06:06.878Z,1.30
2022-11-05T23:08:59.861Z,1.40
2022-11-05T23:11:40.841Z,1.40
2022-11-05T23:14:18.726Z,1.30
2022-11-05T23:17:11.782Z,1.20
2022-11-05T23:20:04.987Z,1.20
2022-11-05T23:22:59.127Z,1.20
2022-11-05T23:25:34.611Z,1.30
2022-11-05T23:28:14.757Z,1.20
2022-11-05T23:31:14.033Z,1.20
2022-11-05T23:33:50.181Z,1.30
2022-11-05T23:36:42.989Z,1.30
2022-11-05T23:39:19.593Z,1.30
2022-11-05T23:42:12.282Z,1.10
2022-11-05T23:45:05.242Z,1.30
2022-11-05T23:47:58.534Z,1.30
2022-11-05T23:50:39.510Z,1.10
2022-11-05T23:53:16.569Z,1.00
2022-11-05T23:55:52.910Z,1.20
2022-11-05T23:58:29.155Z,1.10
